sensor_id;sensor_type;location;lat;lon;timestamp;pressure;altitude;pressure_sealevel;temperature;humidity
84283;BME280;74440;52.600;21.450;2024-03-25T00:03:47;100100;;;2.33;80
84283;BME280;74440;52.600;21.450;2024-03-25T00:07:49;100100;;;2.36;80
84283;BME280;74440;52.600;21.450;2024-03-25T00:11:50;100100;;;2.44;80
84283;BME280;74440;52.600;21.450;2024-03-25T00:15:57;100100;;;2.33;80
84283;BME280;74440;52.600;21.450;2024-03-25T00:19:58;100100;;;2.41;80
84283;BME280;74440;52.600;21.450;2024-03-25T00:24:00;100100;;;2.45;80
84283;BME280;74440;52.600;21.450;2024-03-25T00:28:01;100100;;;2.55;80
84283;BME280;74440;52.600;21.450;2024-03-25T00:32:14;100100;;;2.62;80
84283;BME280;74440;52.600;21.450;2024-03-25T00:36:16;100100;;;2.49;80
84283;BME280;74440;52.600;21.450;2024-03-25T00:40:18;100100;;;2.56;80
84283;BME280;74440;52.600;21.450;2024-03-25T00:44:21;100100;;;2.71;80
84283;BME280;74440;52.600;21.450;2024-03-25T00:48:23;100100;;;2.88;79
84283;BME280;74440;52.600;21.450;2024-03-25T00:52:24;100100;;;2.78;79
84283;BME280;74440;52.600;21.450;2024-03-25T00:56:26;100100;;;2.86;79
84283;BME280;74440;52.600;21.450;2024-03-25T01:00:27;100100;;;2.97;79
84283;BME280;74440;52.600;21.450;2024-03-25T01:04:28;100100;;;3.11;79
84283;BME280;74440;52.600;21.450;2024-03-25T01:08:43;100100;;;3.24;79
84283;BME280;74440;52.600;21.450;2024-03-25T01:12:45;100100;;;3.13;79
84283;BME280;74440;52.600;21.450;2024-03-25T01:16:46;100100;;;3.18;78
84283;BME280;74440;52.600;21.450;2024-03-25T01:20:48;100100;;;3.22;78
84283;BME280;74440;52.600;21.450;2024-03-25T01:24:50;100100;;;3.30;78
84283;BME280;74440;52.600;21.450;2024-03-25T01:28:52;100100;;;3.07;78
84283;BME280;74440;52.600;21.450;2024-03-25T01:32:53;100100;;;3.04;78
84283;BME280;74440;52.600;21.450;2024-03-25T01:36:54;100100;;;3.08;78
84283;BME280;74440;52.600;21.450;2024-03-25T01:45:13;100100;;;3.01;78
84283;BME280;74440;52.600;21.450;2024-03-25T01:49:15;100100;;;2.80;78
84283;BME280;74440;52.600;21.450;2024-03-25T01:53:16;100100;;;2.75;79
84283;BME280;74440;52.600;21.450;2024-03-25T01:57:18;100100;;;2.77;78
84283;BME280;74440;52.600;21.450;2024-03-25T02:01:20;100100;;;2.85;79
84283;BME280;74440;52.600;21.450;2024-03-25T02:05:22;100100;;;2.63;79
84283;BME280;74440;52.600;21.450;2024-03-25T02:09:24;100100;;;2.67;79
84283;BME280;74440;52.600;21.450;2024-03-25T02:13:25;100100;;;2.75;79
84283;BME280;74440;52.600;21.450;2024-03-25T02:17:27;100100;;;2.83;79
84283;BME280;74440;52.600;21.450;2024-03-25T02:21:42;100100;;;2.88;79
84283;BME280;74440;52.600;21.450;2024-03-25T02:25:54;100100;;;2.70;79
84283;BME280;74440;52.600;21.450;2024-03-25T02:30:01;100100;;;2.72;79
84283;BME280;74440;52.600;21.450;2024-03-25T02:34:03;100100;;;2.75;79
84283;BME280;74440;52.600;21.450;2024-03-25T02:38:05;100100;;;2.77;78
84283;BME280;74440;52.600;21.450;2024-03-25T02:42:14;100100;;;2.75;79
84283;BME280;74440;52.600;21.450;2024-03-25T02:46:15;100100;;;2.51;79
84283;BME280;74440;52.600;21.450;2024-03-25T02:50:17;100100;;;2.54;79
84283;BME280;74440;52.600;21.450;2024-03-25T02:54:18;100100;;;2.62;79
84283;BME280;74440;52.600;21.450;2024-03-25T02:58:20;100100;;;2.72;79
84283;BME280;74440;52.600;21.450;2024-03-25T03:02:22;100100;;;2.53;79
84283;BME280;74440;52.600;21.450;2024-03-25T03:06:24;100100;;;2.59;79
84283;BME280;74440;52.600;21.450;2024-03-25T03:10:25;100100;;;2.69;79
84283;BME280;74440;52.600;21.450;2024-03-25T03:14:26;100100;;;2.84;79
84283;BME280;74440;52.600;21.450;2024-03-25T03:18:43;100100;;;2.96;79
84283;BME280;74440;52.600;21.450;2024-03-25T03:22:45;100100;;;2.84;79
84283;BME280;74440;52.600;21.450;2024-03-25T03:26:46;100100;;;2.96;79
84283;BME280;74440;52.600;21.450;2024-03-25T03:30:48;100100;;;3.06;78
84283;BME280;74440;52.600;21.450;2024-03-25T03:34:50;100100;;;3.19;78
84283;BME280;74440;52.600;21.450;2024-03-25T03:38:51;100100;;;3.04;79
84283;BME280;74440;52.600;21.450;2024-03-25T03:42:53;100100;;;3.08;78
84283;BME280;74440;52.600;21.450;2024-03-25T03:46:54;100100;;;3.14;78
84283;BME280;74440;52.600;21.450;2024-03-25T03:50:56;100100;;;3.24;78
84283;BME280;74440;52.600;21.450;2024-03-25T03:55:13;100100;;;3.31;78
84283;BME280;74440;52.600;21.450;2024-03-25T03:59:14;100100;;;3.18;79
84283;BME280;74440;52.600;21.450;2024-03-25T04:03:19;100100;;;3.23;78
84283;BME280;74440;52.600;21.450;2024-03-25T04:07:20;100100;;;3.28;78
84283;BME280;74440;52.600;21.450;2024-03-25T04:11:29;100100;;;3.21;77
84283;BME280;74440;52.600;21.450;2024-03-25T04:15:44;100100;;;3.08;78
84283;BME280;74440;52.600;21.450;2024-03-25T04:19:46;100100;;;2.83;78
84283;BME280;74440;52.600;21.450;2024-03-25T04:23:48;100100;;;2.82;78
84283;BME280;74440;52.600;21.450;2024-03-25T04:27:50;100100;;;2.83;78
84283;BME280;74440;52.600;21.450;2024-03-25T04:31:51;100100;;;2.85;79
84283;BME280;74440;52.600;21.450;2024-03-25T04:35:52;100100;;;2.62;79
84283;BME280;74440;52.600;21.450;2024-03-25T04:39:54;100100;;;2.65;79
84283;BME280;74440;52.600;21.450;2024-03-25T04:43:55;100100;;;2.72;79
84283;BME280;74440;52.600;21.450;2024-03-25T04:47:57;100100;;;2.82;79
84283;BME280;74440;52.600;21.450;2024-03-25T04:52:14;100100;;;2.80;79
84283;BME280;74440;52.600;21.450;2024-03-25T04:56:20;100100;;;2.62;80
84283;BME280;74440;52.600;21.450;2024-03-25T05:00:21;100100;;;2.65;80
84283;BME280;74440;52.600;21.450;2024-03-25T05:04:22;100100;;;2.80;79
84283;BME280;74440;52.600;21.450;2024-03-25T05:08:25;100200;;;2.99;79
84283;BME280;74440;52.600;21.450;2024-03-25T05:12:26;100200;;;2.89;79
84283;BME280;74440;52.600;21.450;2024-03-25T05:16:31;100200;;;2.98;79
84283;BME280;74440;52.600;21.450;2024-03-25T05:20:32;100200;;;3.05;79
84283;BME280;74440;52.600;21.450;2024-03-25T05:24:34;100200;;;3.10;79
84283;BME280;74440;52.600;21.450;2024-03-25T05:28:46;100200;;;3.20;79
84283;BME280;74440;52.600;21.450;2024-03-25T05:32:47;100200;;;3.06;79
84283;BME280;74440;52.600;21.450;2024-03-25T05:36:49;100200;;;3.07;79
84283;BME280;74440;52.600;21.450;2024-03-25T05:40:50;100200;;;3.18;79
84283;BME280;74440;52.600;21.450;2024-03-25T05:44:51;100200;;;3.30;78
84283;BME280;74440;52.600;21.450;2024-03-25T05:48:53;100200;;;3.20;79
84283;BME280;74440;52.600;21.450;2024-03-25T05:52:54;100200;;;3.25;78
84283;BME280;74440;52.600;21.450;2024-03-25T05:56:55;100200;;;3.41;78
84283;BME280;74440;52.600;21.450;2024-03-25T06:00:57;100200;;;3.62;78
84283;BME280;74440;52.600;21.450;2024-03-25T06:04:58;100200;;;3.61;78
84283;BME280;74440;52.600;21.450;2024-03-25T06:08:59;100200;;;3.78;78
84283;BME280;74440;52.600;21.450;2024-03-25T06:13:02;100200;;;4.05;77
84283;BME280;74440;52.600;21.450;2024-03-25T06:17:04;100200;;;4.29;76
84283;BME280;74440;52.600;21.450;2024-03-25T06:21:14;100200;;;4.50;76
84283;BME280;74440;52.600;21.450;2024-03-25T06:25:16;100200;;;4.60;75
84283;BME280;74440;52.600;21.450;2024-03-25T06:29:18;100200;;;4.82;75
84283;BME280;74440;52.600;21.450;2024-03-25T06:33:19;100200;;;5.13;74
84283;BME280;74440;52.600;21.450;2024-03-25T06:37:32;100200;;;5.66;74
84283;BME280;74440;52.600;21.450;2024-03-25T06:41:46;100200;;;6.44;70
84283;BME280;74440;52.600;21.450;2024-03-25T06:45:47;100200;;;7.18;68
84283;BME280;74440;52.600;21.450;2024-03-25T06:49:48;100200;;;7.73;67
84283;BME280;74440;52.600;21.450;2024-03-25T06:53:55;100200;;;8.41;66
84283;BME280;74440;52.600;21.450;2024-03-25T06:57:57;100200;;;9.24;62
84283;BME280;74440;52.600;21.450;2024-03-25T07:01:58;100200;;;9.96;60
84283;BME280;74440;52.600;21.450;2024-03-25T07:06:00;100200;;;10.65;59
84283;BME280;74440;52.600;21.450;2024-03-25T07:10:02;100200;;;11.71;57
84283;BME280;74440;52.600;21.450;2024-03-25T07:14:03;100200;;;12.99;54
84283;BME280;74440;52.600;21.450;2024-03-25T07:18:15;100200;;;15.33;50
84283;BME280;74440;52.600;21.450;2024-03-25T07:22:16;100200;;;17.37;47
84283;BME280;74440;52.600;21.450;2024-03-25T07:26:18;100200;;;19.69;42
84283;BME280;74440;52.600;21.450;2024-03-25T07:30:19;100200;;;21.58;38
84283;BME280;74440;52.600;21.450;2024-03-25T07:34:25;100200;;;21.60;35
84283;BME280;74440;52.600;21.450;2024-03-25T07:38:27;100200;;;19.58;36
84283;BME280;74440;52.600;21.450;2024-03-25T07:42:29;100200;;;17.76;38
84283;BME280;74440;52.600;21.450;2024-03-25T07:46:31;100200;;;16.32;41
84283;BME280;74440;52.600;21.450;2024-03-25T07:50:32;100200;;;15.37;42
84283;BME280;74440;52.600;21.450;2024-03-25T07:54:43;100200;;;14.52;44
84283;BME280;74440;52.600;21.450;2024-03-25T07:58:45;100200;;;14.17;45
84283;BME280;74440;52.600;21.450;2024-03-25T08:02:46;100200;;;14.08;45
84283;BME280;74440;52.600;21.450;2024-03-25T08:06:48;100200;;;13.84;46
84283;BME280;74440;52.600;21.450;2024-03-25T08:10:50;100200;;;13.87;47
84283;BME280;74440;52.600;21.450;2024-03-25T08:14:54;100200;;;13.45;47
84283;BME280;74440;52.600;21.450;2024-03-25T08:18:55;100200;;;13.19;47
84283;BME280;74440;52.600;21.450;2024-03-25T08:22:56;100200;;;12.87;48
84283;BME280;74440;52.600;21.450;2024-03-25T08:26:57;100200;;;12.97;47
84283;BME280;74440;52.600;21.450;2024-03-25T08:31:12;100200;;;13.20;46
84283;BME280;74440;52.600;21.450;2024-03-25T08:35:13;100200;;;14.37;45
84283;BME280;74440;52.600;21.450;2024-03-25T08:39:15;100200;;;16.18;43
84283;BME280;74440;52.600;21.450;2024-03-25T08:43:16;100200;;;17.09;41
84283;BME280;74440;52.600;21.450;2024-03-25T08:47:18;100200;;;19.52;38
84283;BME280;74440;52.600;21.450;2024-03-25T08:51:19;100200;;;20.76;35
84283;BME280;74440;52.600;21.450;2024-03-25T08:55:21;100200;;;20.01;35
84283;BME280;74440;52.600;21.450;2024-03-25T08:59:22;100200;;;18.65;36
84283;BME280;74440;52.600;21.450;2024-03-25T09:03:23;100200;;;17.56;36
84283;BME280;74440;52.600;21.450;2024-03-25T09:07:41;100200;;;16.87;36
84283;BME280;74440;52.600;21.450;2024-03-25T09:11:42;100200;;;17.77;35
84283;BME280;74440;52.600;21.450;2024-03-25T09:15:43;100200;;;20.45;33
84283;BME280;74440;52.600;21.450;2024-03-25T09:19:45;100200;;;20.58;31
84283;BME280;74440;52.600;21.450;2024-03-25T09:23:47;100200;;;20.46;30
84283;BME280;74440;52.600;21.450;2024-03-25T09:27:50;100200;;;21.41;30
84283;BME280;74440;52.600;21.450;2024-03-25T09:31:51;100200;;;20.70;29
84283;BME280;74440;52.600;21.450;2024-03-25T09:35:53;100200;;;19.18;31
84283;BME280;74440;52.600;21.450;2024-03-25T09:39:54;100200;;;19.11;31
84283;BME280;74440;52.600;21.450;2024-03-25T09:44:09;100200;;;21.92;28
84283;BME280;74440;52.600;21.450;2024-03-25T09:48:12;100200;;;24.06;25
84283;BME280;74440;52.600;21.450;2024-03-25T09:52:17;100200;;;24.79;25
84283;BME280;74440;52.600;21.450;2024-03-25T09:56:18;100200;;;26.38;24
84283;BME280;74440;52.600;21.450;2024-03-25T10:00:20;100200;;;27.92;22
84283;BME280;74440;52.600;21.450;2024-03-25T10:04:22;100200;;;29.22;20
84283;BME280;74440;52.600;21.450;2024-03-25T10:08:23;100200;;;29.92;19
84283;BME280;74440;52.600;21.450;2024-03-25T10:12:31;100200;;;28.33;20
84283;BME280;74440;52.600;21.450;2024-03-25T10:16:32;100200;;;25.16;21
84283;BME280;74440;52.600;21.450;2024-03-25T10:20:37;100200;;;22.49;24
84283;BME280;74440;52.600;21.450;2024-03-25T10:24:44;100200;;;20.29;27
84283;BME280;74440;52.600;21.450;2024-03-25T10:28:46;100200;;;18.77;29
84283;BME280;74440;52.600;21.450;2024-03-25T10:37:03;100200;;;16.59;33
84283;BME280;74440;52.600;21.450;2024-03-25T10:41:09;100200;;;15.70;35
84283;BME280;74440;52.600;21.450;2024-03-25T10:45:13;100200;;;14.80;36
84283;BME280;74440;52.600;21.450;2024-03-25T10:49:38;100200;;;14.40;37
84283;BME280;74440;52.600;21.450;2024-03-25T10:53:30;100200;;;14.09;38
84283;BME280;74440;52.600;21.450;2024-03-25T10:57:34;100200;;;13.92;39
84283;BME280;74440;52.600;21.450;2024-03-25T11:01:39;100200;;;13.63;39
84283;BME280;74440;52.600;21.450;2024-03-25T11:05:41;100200;;;13.24;40
84283;BME280;74440;52.600;21.450;2024-03-25T11:09:42;100200;;;13.17;40
84283;BME280;74440;52.600;21.450;2024-03-25T11:13:44;100200;;;13.08;41
84283;BME280;74440;52.600;21.450;2024-03-25T11:17:49;100200;;;13.23;41
84283;BME280;74440;52.600;21.450;2024-03-25T11:21:51;100200;;;13.62;41
84283;BME280;74440;52.600;21.450;2024-03-25T11:25:55;100200;;;13.89;41
84283;BME280;74440;52.600;21.450;2024-03-25T11:29:58;100200;;;14.20;40
84283;BME280;74440;52.600;21.450;2024-03-25T11:34:05;100200;;;14.15;39
84283;BME280;74440;52.600;21.450;2024-03-25T11:38:09;100200;;;13.66;40
84283;BME280;74440;52.600;21.450;2024-03-25T11:42:10;100200;;;13.12;41
84283;BME280;74440;52.600;21.450;2024-03-25T11:46:17;100200;;;12.84;42
84283;BME280;74440;52.600;21.450;2024-03-25T11:50:19;100200;;;12.65;42
84283;BME280;74440;52.600;21.450;2024-03-25T11:54:21;100200;;;12.24;44
84283;BME280;74440;52.600;21.450;2024-03-25T11:58:39;100200;;;11.11;48
84283;BME280;74440;52.600;21.450;2024-03-25T12:02:45;100200;;;10.26;50
84283;BME280;74440;52.600;21.450;2024-03-25T12:06:46;100200;;;9.95;50
84283;BME280;74440;52.600;21.450;2024-03-25T12:10:48;100200;;;9.87;52
84283;BME280;74440;52.600;21.450;2024-03-25T12:15:01;100200;;;9.74;52
84283;BME280;74440;52.600;21.450;2024-03-25T12:19:11;100200;;;9.64;52
84283;BME280;74440;52.600;21.450;2024-03-25T12:23:12;100200;;;9.53;52
84283;BME280;74440;52.600;21.450;2024-03-25T12:27:14;100200;;;9.54;54
84283;BME280;74440;52.600;21.450;2024-03-25T12:31:16;100200;;;9.46;54
84283;BME280;74440;52.600;21.450;2024-03-25T12:35:18;100200;;;9.46;56
84283;BME280;74440;52.600;21.450;2024-03-25T12:39:20;100200;;;9.16;57
84283;BME280;74440;52.600;21.450;2024-03-25T12:43:22;100200;;;9.08;56
84283;BME280;74440;52.600;21.450;2024-03-25T12:47:23;100200;;;9.07;56
84283;BME280;74440;52.600;21.450;2024-03-25T12:51:24;100300;;;9.21;56
84283;BME280;74440;52.600;21.450;2024-03-25T12:55:39;100300;;;9.41;57
84283;BME280;74440;52.600;21.450;2024-03-25T12:59:41;100300;;;9.42;57
84283;BME280;74440;52.600;21.450;2024-03-25T13:07:28;100300;;;9.45;56
84283;BME280;74440;52.600;21.450;2024-03-25T13:11:29;100300;;;9.36;55
84283;BME280;74440;52.600;21.450;2024-03-25T13:15:31;100300;;;8.90;56
84283;BME280;74440;52.600;21.450;2024-03-25T13:19:33;100300;;;8.76;57
84283;BME280;74440;52.600;21.450;2024-03-25T13:23:34;100300;;;8.46;58
84283;BME280;74440;52.600;21.450;2024-03-25T13:27:36;100300;;;8.33;58
84283;BME280;74440;52.600;21.450;2024-03-25T13:31:38;100300;;;8.26;58
84283;BME280;74440;52.600;21.450;2024-03-25T13:35:40;100300;;;8.37;59
84283;BME280;74440;52.600;21.450;2024-03-25T13:39:57;100300;;;8.31;60
84283;BME280;74440;52.600;21.450;2024-03-25T13:43:59;100300;;;8.30;60
84283;BME280;74440;52.600;21.450;2024-03-25T13:48:03;100300;;;8.22;60
84283;BME280;74440;52.600;21.450;2024-03-25T13:52:05;100300;;;8.48;60
84283;BME280;74440;52.600;21.450;2024-03-25T13:56:06;100300;;;9.36;59
84283;BME280;74440;52.600;21.450;2024-03-25T14:00:08;100300;;;10.02;56
84283;BME280;74440;52.600;21.450;2024-03-25T14:04:12;100300;;;10.25;55
84283;BME280;74440;52.600;21.450;2024-03-25T14:08:13;100300;;;10.04;55
84283;BME280;74440;52.600;21.450;2024-03-25T14:12:14;100300;;;9.76;54
84283;BME280;74440;52.600;21.450;2024-03-25T14:16:27;100300;;;9.46;56
84283;BME280;74440;52.600;21.450;2024-03-25T14:20:28;100300;;;9.13;57
84283;BME280;74440;52.600;21.450;2024-03-25T14:24:31;100300;;;9.08;57
84283;BME280;74440;52.600;21.450;2024-03-25T14:28:32;100300;;;8.99;57
84283;BME280;74440;52.600;21.450;2024-03-25T14:32:33;100300;;;8.91;58
84283;BME280;74440;52.600;21.450;2024-03-25T14:36:35;100300;;;8.54;58
84283;BME280;74440;52.600;21.450;2024-03-25T14:40:41;100300;;;8.40;59
84283;BME280;74440;52.600;21.450;2024-03-25T14:44:42;100300;;;8.33;59
84283;BME280;74440;52.600;21.450;2024-03-25T14:48:44;100300;;;8.33;59
84283;BME280;74440;52.600;21.450;2024-03-25T14:52:58;100300;;;8.34;59
84283;BME280;74440;52.600;21.450;2024-03-25T14:57:03;100300;;;8.19;60
84283;BME280;74440;52.600;21.450;2024-03-25T15:01:04;100300;;;8.25;60
84283;BME280;74440;52.600;21.450;2024-03-25T15:05:12;100300;;;8.34;60
84283;BME280;74440;52.600;21.450;2024-03-25T15:09:13;100300;;;8.44;60
84283;BME280;74440;52.600;21.450;2024-03-25T15:13:26;100300;;;8.52;60
84283;BME280;74440;52.600;21.450;2024-03-25T15:17:28;100300;;;8.43;60
84283;BME280;74440;52.600;21.450;2024-03-25T15:21:29;100300;;;8.49;60
84283;BME280;74440;52.600;21.450;2024-03-25T15:25:30;100300;;;8.54;61
84283;BME280;74440;52.600;21.450;2024-03-25T15:29:32;100300;;;8.60;61
84283;BME280;74440;52.600;21.450;2024-03-25T15:33:34;100400;;;8.37;61
84283;BME280;74440;52.600;21.450;2024-03-25T15:37:35;100400;;;8.32;62
84283;BME280;74440;52.600;21.450;2024-03-25T15:41:36;100400;;;8.19;63
84283;BME280;74440;52.600;21.450;2024-03-25T15:45:38;100400;;;8.11;63
84283;BME280;74440;52.600;21.450;2024-03-25T15:49:56;100400;;;7.89;63
84283;BME280;74440;52.600;21.450;2024-03-25T15:53:57;100400;;;7.57;64
84283;BME280;74440;52.600;21.450;2024-03-25T15:58:06;100400;;;7.46;65
84283;BME280;74440;52.600;21.450;2024-03-25T16:02:17;100400;;;7.37;65
84283;BME280;74440;52.600;21.450;2024-03-25T16:06:19;100400;;;7.40;64
84283;BME280;74440;52.600;21.450;2024-03-25T16:10:31;100400;;;7.42;65
84283;BME280;74440;52.600;21.450;2024-03-25T16:14:36;100400;;;7.25;65
84283;BME280;74440;52.600;21.450;2024-03-25T16:18:38;100400;;;7.26;65
84283;BME280;74440;52.600;21.450;2024-03-25T16:22:39;100400;;;7.16;66
84283;BME280;74440;52.600;21.450;2024-03-25T16:26:41;100400;;;7.13;66
84283;BME280;74440;52.600;21.450;2024-03-25T16:30:59;100400;;;7.07;67
84283;BME280;74440;52.600;21.450;2024-03-25T16:35:01;100400;;;6.90;67
84283;BME280;74440;52.600;21.450;2024-03-25T16:39:04;100400;;;6.96;67
84283;BME280;74440;52.600;21.450;2024-03-25T16:43:07;100400;;;7.05;67
84283;BME280;74440;52.600;21.450;2024-03-25T16:47:12;100400;;;7.14;67
84283;BME280;74440;52.600;21.450;2024-03-25T16:51:30;100400;;;7.13;67
84283;BME280;74440;52.600;21.450;2024-03-25T16:55:34;100400;;;6.95;67
84283;BME280;74440;52.600;21.450;2024-03-25T16:59:37;100400;;;7.03;67
84283;BME280;74440;52.600;21.450;2024-03-25T17:03:42;100400;;;7.11;68
84283;BME280;74440;52.600;21.450;2024-03-25T17:07:43;100400;;;7.21;68
84283;BME280;74440;52.600;21.450;2024-03-25T17:12:01;100400;;;7.23;68
84283;BME280;74440;52.600;21.450;2024-03-25T17:16:03;100400;;;7.10;69
84283;BME280;74440;52.600;21.450;2024-03-25T17:20:08;100400;;;7.12;69
84283;BME280;74440;52.600;21.450;2024-03-25T17:24:16;100400;;;7.10;69
84283;BME280;74440;52.600;21.450;2024-03-25T17:28:20;100400;;;7.11;70
84283;BME280;74440;52.600;21.450;2024-03-25T17:32:32;100400;;;7.02;70
84283;BME280;74440;52.600;21.450;2024-03-25T17:36:34;100500;;;6.82;71
84283;BME280;74440;52.600;21.450;2024-03-25T17:40:37;100500;;;6.86;71
84283;BME280;74440;52.600;21.450;2024-03-25T17:44:39;100500;;;6.88;70
84283;BME280;74440;52.600;21.450;2024-03-25T17:48:40;100500;;;6.92;70
84283;BME280;74440;52.600;21.450;2024-03-25T17:52:49;100500;;;6.75;71
84283;BME280;74440;52.600;21.450;2024-03-25T17:56:51;100500;;;6.78;71
84283;BME280;74440;52.600;21.450;2024-03-25T18:00:53;100500;;;6.81;71
84283;BME280;74440;52.600;21.450;2024-03-25T18:04:59;100500;;;6.81;71
84283;BME280;74440;52.600;21.450;2024-03-25T18:09:06;100500;;;6.80;72
84283;BME280;74440;52.600;21.450;2024-03-25T18:13:08;100500;;;6.62;72
84283;BME280;74440;52.600;21.450;2024-03-25T18:17:12;100500;;;6.66;72
84283;BME280;74440;52.600;21.450;2024-03-25T18:21:13;100500;;;6.75;72
84283;BME280;74440;52.600;21.450;2024-03-25T18:25:15;100500;;;6.83;72
84283;BME280;74440;52.600;21.450;2024-03-25T18:29:16;100500;;;6.63;73
84283;BME280;74440;52.600;21.450;2024-03-25T18:33:18;100500;;;6.63;73
84283;BME280;74440;52.600;21.450;2024-03-25T18:37:19;100500;;;6.62;73
84283;BME280;74440;52.600;21.450;2024-03-25T18:41:20;100500;;;6.69;73
84283;BME280;74440;52.600;21.450;2024-03-25T18:45:35;100500;;;6.74;73
84283;BME280;74440;52.600;21.450;2024-03-25T18:49:37;100500;;;6.62;73
84283;BME280;74440;52.600;21.450;2024-03-25T18:53:38;100500;;;6.69;73
84283;BME280;74440;52.600;21.450;2024-03-25T18:57:39;100500;;;6.74;73
84283;BME280;74440;52.600;21.450;2024-03-25T19:01:41;100500;;;6.82;74
84283;BME280;74440;52.600;21.450;2024-03-25T19:05:42;100500;;;6.56;74
84283;BME280;74440;52.600;21.450;2024-03-25T19:09:44;100500;;;6.51;74
84283;BME280;74440;52.600;21.450;2024-03-25T19:13:45;100500;;;6.50;74
84283;BME280;74440;52.600;21.450;2024-03-25T19:17:46;100500;;;6.54;74
84283;BME280;74440;52.600;21.450;2024-03-25T19:21:48;100500;;;6.34;74
84283;BME280;74440;52.600;21.450;2024-03-25T19:25:50;100500;;;6.33;74
84283;BME280;74440;52.600;21.450;2024-03-25T19:29:52;100500;;;6.33;75
84283;BME280;74440;52.600;21.450;2024-03-25T19:33:54;100500;;;6.34;75
84283;BME280;74440;52.600;21.450;2024-03-25T19:38:05;100500;;;6.25;75
84283;BME280;74440;52.600;21.450;2024-03-25T19:42:06;100500;;;5.97;75
84283;BME280;74440;52.600;21.450;2024-03-25T19:46:08;100500;;;5.96;75
84283;BME280;74440;52.600;21.450;2024-03-25T19:50:09;100500;;;5.99;75
84283;BME280;74440;52.600;21.450;2024-03-25T19:54:12;100500;;;6.05;75
84283;BME280;74440;52.600;21.450;2024-03-25T19:58:14;100500;;;5.80;75
84283;BME280;74440;52.600;21.450;2024-03-25T20:02:15;100500;;;5.77;75
84283;BME280;74440;52.600;21.450;2024-03-25T20:06:17;100500;;;5.74;75
84283;BME280;74440;52.600;21.450;2024-03-25T20:10:19;100500;;;5.75;75
84283;BME280;74440;52.600;21.450;2024-03-25T20:14:35;100500;;;5.67;76
84283;BME280;74440;52.600;21.450;2024-03-25T20:18:36;100600;;;5.44;76
84283;BME280;74440;52.600;21.450;2024-03-25T20:22:37;100600;;;5.42;76
84283;BME280;74440;52.600;21.450;2024-03-25T20:26:39;100600;;;5.41;76
84283;BME280;74440;52.600;21.450;2024-03-25T20:30:40;100600;;;5.42;76
84283;BME280;74440;52.600;21.450;2024-03-25T20:34:42;100600;;;5.15;76
84283;BME280;74440;52.600;21.450;2024-03-25T20:38:43;100600;;;5.20;76
84283;BME280;74440;52.600;21.450;2024-03-25T20:42:45;100600;;;5.26;76
84283;BME280;74440;52.600;21.450;2024-03-25T20:46:46;100600;;;5.29;76
84283;BME280;74440;52.600;21.450;2024-03-25T20:51:04;100600;;;5.22;76
84283;BME280;74440;52.600;21.450;2024-03-25T20:55:06;100600;;;4.95;77
84283;BME280;74440;52.600;21.450;2024-03-25T20:59:10;100600;;;4.89;77
84283;BME280;74440;52.600;21.450;2024-03-25T21:03:12;100600;;;4.87;77
84283;BME280;74440;52.600;21.450;2024-03-25T21:07:16;100600;;;4.87;77
84283;BME280;74440;52.600;21.450;2024-03-25T21:11:18;100600;;;4.59;77
84283;BME280;74440;52.600;21.450;2024-03-25T21:15:19;100600;;;4.59;77
84283;BME280;74440;52.600;21.450;2024-03-25T21:19:21;100600;;;4.60;77
84283;BME280;74440;52.600;21.450;2024-03-25T21:23:22;100600;;;4.63;77
84283;BME280;74440;52.600;21.450;2024-03-25T21:27:34;100600;;;4.60;78
84283;BME280;74440;52.600;21.450;2024-03-25T21:31:35;100600;;;4.35;78
84283;BME280;74440;52.600;21.450;2024-03-25T21:35:39;100600;;;4.34;78
84283;BME280;74440;52.600;21.450;2024-03-25T21:39:41;100600;;;4.35;78
84283;BME280;74440;52.600;21.450;2024-03-25T21:43:47;100600;;;4.39;78
84283;BME280;74440;52.600;21.450;2024-03-25T21:48:06;100600;;;4.30;78
84283;BME280;74440;52.600;21.450;2024-03-25T21:52:08;100600;;;4.04;78
84283;BME280;74440;52.600;21.450;2024-03-25T21:56:09;100600;;;4.03;78
84283;BME280;74440;52.600;21.450;2024-03-25T22:00:12;100600;;;4.03;78
84283;BME280;74440;52.600;21.450;2024-03-25T22:04:14;100600;;;4.05;78
84283;BME280;74440;52.600;21.450;2024-03-25T22:08:15;100600;;;3.76;79
84283;BME280;74440;52.600;21.450;2024-03-25T22:12:17;100600;;;3.75;79
84283;BME280;74440;52.600;21.450;2024-03-25T22:16:18;100600;;;3.72;78
84283;BME280;74440;52.600;21.450;2024-03-25T22:20:19;100600;;;3.72;78
84283;BME280;74440;52.600;21.450;2024-03-25T22:24:35;100600;;;3.66;79
84283;BME280;74440;52.600;21.450;2024-03-25T22:28:38;100600;;;3.39;79
84283;BME280;74440;52.600;21.450;2024-03-25T22:32:40;100600;;;3.37;79
84283;BME280;74440;52.600;21.450;2024-03-25T22:36:41;100600;;;3.37;79
84283;BME280;74440;52.600;21.450;2024-03-25T22:40:43;100600;;;3.44;79
84283;BME280;74440;52.600;21.450;2024-03-25T22:44:44;100600;;;3.14;80
84283;BME280;74440;52.600;21.450;2024-03-25T22:48:45;100600;;;3.12;79
84283;BME280;74440;52.600;21.450;2024-03-25T22:52:47;100600;;;3.14;79
84283;BME280;74440;52.600;21.450;2024-03-25T22:56:48;100600;;;3.16;79
84283;BME280;74440;52.600;21.450;2024-03-25T23:01:06;100600;;;3.13;79
84283;BME280;74440;52.600;21.450;2024-03-25T23:05:08;100600;;;2.88;80
84283;BME280;74440;52.600;21.450;2024-03-25T23:09:09;100600;;;2.93;80
84283;BME280;74440;52.600;21.450;2024-03-25T23:13:12;100600;;;2.99;80